Peoria, Oklahoma
Current Conditions -  °F | °C
As of 6:53 PM on Wednesday 22 Oct 2014 (Local Time) from KJLN Reporting Station
Clear Clear  
Wind Chill: 66°   Ceiling: Unl
Heat Index: 66°   Visibility: 10mi
Dew Point: 56°   Wind: 8mph
Humidity: 70%   Direction: 110°ESE
Pressure: 30.12"   Gusts: NA
Location:  36.9122°N, 94.6735°W
Report Text: KJLN 222353Z 11007KT 10SM CLR 19/13 A3012 RMK AO2 SLP194 T01890133 10233 20189 57002
Loading
Personal Weather Stations






























Interactive Weather Map
Tropical Storm Tracking
New forecast layout! Learn more

10-Day Weather Forecast

Advertisements
Track Severe Weather on mobile